This is the latest recevied weather packets stored in our database for station/object HS3UAA-1. If no packets are shown the sender has not sent any weather packets the latest 10 day(s).
| Time | Temp. | Humidity | Pressure | Rain* | Wind** | Luminosity | Snow |
|---|---|---|---|---|---|---|---|
| 1777725790 | 36.67° C | 34% | 994 hPa | - | - | 0 W/m² | - |
| 1777725468 | 37.22° C | 33% | 994 hPa | - | - | 0 W/m² | - |
| 1777725146 | 36.67° C | 33% | 994 hPa | - | - | 0 W/m² | - |
| 1777724824 | 36.67° C | 33% | 994 hPa | - | - | 0 W/m² | - |
| 1777724452 | 36.67° C | 33% | 994 hPa | - | - | 0 W/m² | - |
| 1777724130 | 36.11° C | 34% | 994 hPa | - | - | 0 W/m² | - |
| 1777723807 | 36.11° C | 34% | 994 hPa | - | - | 0 W/m² | - |
| 1777723485 | 35.56° C | 34% | 994 hPa | - | - | 0 W/m² | - |
| 1777723163 | 35.56° C | 34% | 994 hPa | - | - | 0 W/m² | - |
| 1777722841 | 35.56° C | 34% | 994 hPa | - | - | 0 W/m² | - |
| 1777722519 | 35.56° C | 34% | 994 hPa | - | - | 0 W/m² | - |
| 1777722197 | 35° C | 35% | 994 hPa | - | - | 0 W/m² | - |
| 1777721876 | 34.44° C | 35% | 994 hPa | - | - | 0 W/m² | - |
| 1777721553 | 34.44° C | 35% | 994 hPa | - | - | 0 W/m² | - |
| 1777721231 | 33.89° C | 35% | 994 hPa | - | - | 0 W/m² | - |
| 1777720909 | 33.89° C | 35% | 994 hPa | - | - | 0 W/m² | - |
| 1777720587 | 33.89° C | 35% | 993 hPa | - | - | 0 W/m² | - |
| 1777720264 | 33.33° C | 35% | 993 hPa | - | - | 0 W/m² | - |
| 1777719688 | 32.22° C | 36% | 993 hPa | - | - | 0 W/m² | - |
| 1777719366 | 30.56° C | 38% | 993 hPa | - | - | 0 W/m² | - |
| 1777719044 | 28.33° C | 45% | 993 hPa | - | - | 0 W/m² | - |
| 1777718447 | 28.33° C | 42% | 993 hPa | - | - | 0 W/m² | - |
| 1777718125 | 27.78° C | 39% | 993 hPa | - | - | 0 W/m² | - |
| 1777717803 | 28.33° C | 42% | 993 hPa | - | - | 0 W/m² | - |
| 1777717481 | 27.78° C | 40% | 993 hPa | - | - | 0 W/m² | - |
* Rain since midnight (hover to see other rain measurements)
** Current wind speed in m/s (hover to see current wind gust speed)